createdAt,value
2018-08-09T13:01:42.114Z,4.10
2018-08-09T13:04:42.232Z,3.90
2018-08-09T13:07:13.519Z,3.80
2018-08-09T13:07:40.048Z,3.70
2018-08-09T13:10:39.441Z,3.80
2018-08-09T13:22:41.711Z,3.80
2018-08-09T13:39:41.368Z,3.90
2018-08-09T13:40:45.698Z,3.70
2018-08-09T13:42:03.270Z,3.70
2018-08-09T13:45:13.088Z,4.00
2018-08-09T13:46:15.674Z,4.10
2018-08-09T13:47:10.073Z,3.80
2018-08-09T13:48:17.109Z,4.10
2018-08-09T13:49:25.159Z,3.50
2018-08-09T13:50:17.920Z,4.20
2018-08-09T13:51:16.009Z,3.90
2018-08-09T13:52:19.980Z,3.60
2018-08-09T13:53:13.158Z,3.80
2018-08-09T13:57:19.858Z,4.30
2018-08-09T13:58:18.638Z,3.70
2018-08-09T14:00:53.170Z,3.90
2018-08-09T14:01:51.962Z,3.90
2018-08-09T14:02:47.586Z,4.10
2018-08-09T14:03:49.075Z,4.10
2018-08-09T14:04:59.719Z,4.10
2018-08-09T14:08:11.304Z,3.70
2018-08-09T14:10:06.156Z,3.70
2018-08-09T14:11:00.498Z,3.80
2018-08-09T14:12:06.377Z,3.70
2018-08-09T14:12:58.617Z,3.90
2018-08-09T14:15:33.720Z,3.70
2018-08-09T14:16:26.860Z,3.70
2018-08-09T14:17:26.528Z,3.70
2018-08-09T14:20:05.966Z,3.80
2018-08-09T14:21:07.486Z,3.70
2018-08-09T14:22:00.392Z,3.60
2018-08-09T14:22:58.472Z,4.00
2018-08-09T14:24:19.955Z,3.70
2018-08-09T14:26:39.367Z,3.90
2018-08-09T14:27:37.204Z,4.00
2018-08-09T14:28:44.163Z,3.90
2018-08-09T14:29:35.445Z,4.20
2018-08-09T14:30:33.754Z,4.00
2018-08-09T14:31:33.274Z,4.20
2018-08-09T14:32:33.857Z,4.50
2018-08-09T14:33:35.817Z,3.90
2018-08-09T14:34:39.703Z,4.10
2018-08-09T14:35:40.689Z,4.20
2018-08-09T14:36:34.556Z,4.00
2018-08-09T14:37:53.831Z,4.10
2018-08-09T14:38:32.840Z,4.00
2018-08-09T14:39:53.537Z,3.80
2018-08-09T14:40:39.327Z,3.80
2018-08-09T14:42:01.170Z,3.80
2018-08-09T14:42:34.031Z,3.80
2018-08-09T14:43:56.191Z,4.00
2018-08-09T14:44:54.571Z,3.60
2018-08-09T14:45:40.371Z,4.20
2018-08-09T14:46:48.898Z,4.00
2018-08-09T14:47:36.182Z,3.80
2018-08-09T14:48:55.838Z,4.00
2018-08-09T14:49:42.420Z,3.80
2018-08-09T14:51:07.004Z,3.90
2018-08-09T14:53:09.828Z,4.10
2018-08-09T14:54:42.492Z,3.90
2018-08-09T14:55:07.127Z,4.10
2018-08-09T14:56:07.936Z,3.10
2018-08-09T14:57:08.063Z,2.70
2018-08-09T14:58:28.693Z,2.70
2018-08-09T14:59:12.794Z,3.30
2018-08-09T15:00:30.011Z,2.50
2018-08-09T15:01:08.960Z,2.80
2018-08-09T15:02:32.271Z,2.50
2018-08-09T15:03:34.477Z,2.50
2018-08-09T15:04:15.570Z,2.30
2018-08-09T15:05:11.505Z,2.50
2018-08-09T15:06:11.959Z,2.60
2018-08-09T15:07:10.997Z,2.40
2018-08-09T15:08:13.487Z,2.40
2018-08-09T15:20:06.277Z,2.90
2018-08-09T15:21:08.435Z,3.20
2018-08-09T15:22:11.628Z,2.90
2018-08-09T15:23:07.268Z,3.30
2018-08-09T15:24:26.170Z,3.30
